Maria Dos Anxos — ECCL — position and weather

sailwx.info

Track history (hours):
 
Tides and Currents Weather Stations Pressure Air Temp Water Temp Dewpoint Dewpoint Depression Visibility Wind Speed Wind Dir Waves Ship Positions

Maria Dos Anxos

Last reported at 2017-Mar-24 14:26 UTC. Time now 2017-Mar-25 17:40 UTC.
Position N 43°33' W 005°42'.

Length 30 m; draft 4 m.

Type: Fishing. MMSI: 224081150.

Date/timePositionNaut miles runAvg speedWind from/ knotsBaromVisibWave heightAir tempDewpointWater temp
2017-Mar-24 14:26N 43°33' W 005°42'0 0.1
2017-Mar-24 13:33N 43°33' W 005°42'15 4.6
2017-Mar-24 10:15N 43°40' W 005°23'3 0.7
2017-Mar-24 05:32N 43°38' W 005°26'9 8.8
2017-Mar-24 04:34N 43°35' W 005°37'3 3.5
2017-Mar-24 03:33N 43°33' W 005°42'0 0.0
2017-Mar-24 02:34N 43°33' W 005°42'0 0.0
2017-Mar-24 01:33N 43°33' W 005°42'0 0.0
2017-Mar-23 20:33N 43°33' W 005°42'0 0.0
2017-Mar-23 19:33N 43°33' W 005°42'0 0.0
2017-Mar-23 18:16N 43°33' W 005°42'10 0.6
2017-Mar-23 02:18N 43°42' W 005°35'7 8.8
2017-Mar-23 01:33N 43°36' W 005°39'4 0.7
2017-Mar-22 20:12N 43°33' W 005°42'0 0.0
2017-Mar-22 19:33N 43°33' W 005°42'0 0.0
2017-Mar-22 18:34N 43°33' W 005°42'0 0.0
2017-Mar-22 17:31N 43°33' W 005°42'26 3.7
2017-Mar-22 10:17N 43°49' W 005°12'17 2.2
2017-Mar-22 02:21N 43°43' W 005°35'8 9.2
2017-Mar-22 01:32N 43°36' W 005°39'3 0.4
2017-Mar-21 18:04N 43°33' W 005°42'0 0.0
2017-Mar-21 17:33N 43°33' W 005°42'0 0.0
2017-Mar-21 16:33N 43°33' W 005°42'0 0.1
2017-Mar-21 14:33N 43°33' W 005°42'2 2.1
2017-Mar-21 13:32N 43°35' W 005°40'3 0.3
2017-Mar-21 04:18N 43°37' W 005°42'4 5.5
2017-Mar-21 03:33N 43°33' W 005°42'0 0.0
2017-Mar-21 02:33N 43°33' W 005°42'0 0.0
2017-Mar-20 21:29N 43°33' W 005°42'0 0.0
2017-Mar-20 20:33N 43°33' W 005°42'0 0.0
2017-Mar-20 19:27N 43°33' W 005°42'3 3.1
2017-Mar-20 18:28N 43°36' W 005°39'9 1.0
2017-Mar-20 09:08N 43°45' W 005°37'7 1.5
2017-Mar-20 04:26N 43°38' W 005°42'5 5.7
2017-Mar-20 03:33N 43°33' W 005°42'0 0.0
2017-Mar-20 02:33N 43°33' W 005°42'0 0.0
2017-Mar-20 01:33N 43°33' W 005°42'  
2017-Mar-17 19:33N 43°33' W 005°42'0 0.1
2017-Mar-17 18:31N 43°33' W 005°42'10 1.9
2017-Mar-17 13:26N 43°42' W 005°35'0 0.2
2017-Mar-17 11:23N 43°42' W 005°35'6 0.9
2017-Mar-17 04:26N 43°39' W 005°43'5 6.2
2017-Mar-17 03:33N 43°33' W 005°42'0 0.0
2017-Mar-17 02:31N 43°33' W 005°42'0 0.0
2017-Mar-17 01:32N 43°33' W 005°42'0 0.0
2017-Mar-16 21:23N 43°33' W 005°42'0 0.0
2017-Mar-16 20:29N 43°33' W 005°42'0 0.0
2017-Mar-16 19:30N 43°33' W 005°42'0 0.0
2017-Mar-16 18:30N 43°33' W 005°42'0 0.0
2017-Mar-16 17:31N 43°33' W 005°42'0 0.0
2017-Mar-16 16:32N 43°33' W 005°42'0 0.0
2017-Mar-16 14:28N 43°33' W 005°42'12 1.9
2017-Mar-16 08:06N 43°46' W 005°39'  
Track history (hours):
 
Tides and Currents Weather Stations Pressure Air Temp Water Temp Dewpoint Dewpoint Depression Visibility Wind Speed Wind Dir Waves Ship Positions

Maria Dos Anxos

Last reported at 2017-Mar-24 14:26 UTC. Time now 2017-Mar-25 17:40 UTC.
Position N 43°33' W 005°42'.

Length 30 m; draft 4 m.

Type: Fishing. MMSI: 224081150.

Date/timePositionNaut miles runAvg speedWind from/ knotsBaromVisibWave heightAir tempDewpointWater temp
2017-Mar-24 14:26N 43°33' W 005°42'0 0.1
2017-Mar-24 13:33N 43°33' W 005°42'15 4.6
2017-Mar-24 10:15N 43°40' W 005°23'3 0.7
2017-Mar-24 05:32N 43°38' W 005°26'9 8.8
2017-Mar-24 04:34N 43°35' W 005°37'3 3.5
2017-Mar-24 03:33N 43°33' W 005°42'0 0.0
2017-Mar-24 02:34N 43°33' W 005°42'0 0.0
2017-Mar-24 01:33N 43°33' W 005°42'0 0.0
2017-Mar-23 20:33N 43°33' W 005°42'0 0.0
2017-Mar-23 19:33N 43°33' W 005°42'0 0.0
2017-Mar-23 18:16N 43°33' W 005°42'10 0.6
2017-Mar-23 02:18N 43°42' W 005°35'7 8.8
2017-Mar-23 01:33N 43°36' W 005°39'4 0.7
2017-Mar-22 20:12N 43°33' W 005°42'0 0.0
2017-Mar-22 19:33N 43°33' W 005°42'0 0.0
2017-Mar-22 18:34N 43°33' W 005°42'0 0.0
2017-Mar-22 17:31N 43°33' W 005°42'26 3.7
2017-Mar-22 10:17N 43°49' W 005°12'17 2.2
2017-Mar-22 02:21N 43°43' W 005°35'8 9.2
2017-Mar-22 01:32N 43°36' W 005°39'3 0.4
2017-Mar-21 18:04N 43°33' W 005°42'0 0.0
2017-Mar-21 17:33N 43°33' W 005°42'0 0.0
2017-Mar-21 16:33N 43°33' W 005°42'0 0.1
2017-Mar-21 14:33N 43°33' W 005°42'2 2.1
2017-Mar-21 13:32N 43°35' W 005°40'3 0.3
2017-Mar-21 04:18N 43°37' W 005°42'4 5.5
2017-Mar-21 03:33N 43°33' W 005°42'0 0.0
2017-Mar-21 02:33N 43°33' W 005°42'0 0.0
2017-Mar-20 21:29N 43°33' W 005°42'0 0.0
2017-Mar-20 20:33N 43°33' W 005°42'0 0.0
2017-Mar-20 19:27N 43°33' W 005°42'3 3.1
2017-Mar-20 18:28N 43°36' W 005°39'9 1.0
2017-Mar-20 09:08N 43°45' W 005°37'7 1.5
2017-Mar-20 04:26N 43°38' W 005°42'5 5.7
2017-Mar-20 03:33N 43°33' W 005°42'0 0.0
2017-Mar-20 02:33N 43°33' W 005°42'0 0.0
2017-Mar-20 01:33N 43°33' W 005°42'  
2017-Mar-17 19:33N 43°33' W 005°42'0 0.1
2017-Mar-17 18:31N 43°33' W 005°42'10 1.9
2017-Mar-17 13:26N 43°42' W 005°35'0 0.2
2017-Mar-17 11:23N 43°42' W 005°35'6 0.9
2017-Mar-17 04:26N 43°39' W 005°43'5 6.2
2017-Mar-17 03:33N 43°33' W 005°42'0 0.0
2017-Mar-17 02:31N 43°33' W 005°42'0 0.0
2017-Mar-17 01:32N 43°33' W 005°42'0 0.0
2017-Mar-16 21:23N 43°33' W 005°42'0 0.0
2017-Mar-16 20:29N 43°33' W 005°42'0 0.0
2017-Mar-16 19:30N 43°33' W 005°42'0 0.0
2017-Mar-16 18:30N 43°33' W 005°42'0 0.0
2017-Mar-16 17:31N 43°33' W 005°42'0 0.0
2017-Mar-16 16:32N 43°33' W 005°42'0 0.0
2017-Mar-16 14:28N 43°33' W 005°42'12 1.9
2017-Mar-16 08:06N 43°46' W 005°39'  

Dump ship's entire track history